^^
Station Historical Data
Daily Summary for August 15, 2017 Units:  English    Metric   Both
« Previous Day
Next Day »
Daily Weekly Monthly Yearly Custom
  High: Low: Average:
Temperature: 73.5 °F 67.3 °F 70.9 °F
Dew Point: 70.4 °F 66.1 °F 68.5 °F
Humidity: 97% 86% 92%
Wind Speed: 5.0mph 0.0mph 0.3mph
Wind Gust: 8.0mph - -
Wind- - SSW
Pressure: 29.96 in 29.89 in -
Precipitation: 0.09 in    
Historical Graphs
 
 
Tabular Data for August 15, 2017
Time Temperature Dew Point Pressure Wind Wind Speed Wind Gust Humidity Rainfall Rate (Hourly) Conditions
00:00 70.3 °F 67.2 °F 29.96 in Calm     90% 0.00 in CLR
00:15 70.5 °F 67.4 °F 29.96 in Calm   1.0 mph 90% 0.00 in CLR
00:30 70.3 °F 67.2 °F 29.96 in Calm   1.0 mph 90% 0.00 in CLR
00:45 70.6 °F 67.5 °F 29.95 in Calm   2.0 mph 90% 0.00 in CLR
01:00 70.7 °F 67.9 °F 29.95 in Calm   2.0 mph 91% 0.00 in CLR
02:15 71.1 °F 68.0 °F 29.95 in Calm   3.0 mph 90% 0.00 in CLR
02:30 70.6 °F 67.8 °F 29.95 in Calm   2.0 mph 91% 0.01 in CLR
02:45 70.3 °F 67.9 °F 29.95 in Calm   1.0 mph 92% 0.03 in RA
03:00 69.8 °F 67.7 °F 29.95 in South 1.0 mph 3.0 mph 93% 0.02 in RA
03:15 69.4 °F 67.6 °F 29.95 in Calm   4.0 mph 94% 0.00 in -RA
03:30 69.3 °F 67.8 °F 29.95 in Calm   2.0 mph 95% 0.00 in -RA
03:45 69.2 °F 67.7 °F 29.95 in SSW 1.0 mph 4.0 mph 95% 0.00 in -RA
04:00 69.0 °F 67.5 °F 29.95 in SSW 5.0 mph 8.0 mph 95% 0.01 in -RA
04:15 68.6 °F 67.1 °F 29.94 in South 1.0 mph 5.0 mph 95% 0.00 in -DZ
04:30 68.5 °F 67.3 °F 29.94 in Calm   5.0 mph 96% 0.00 in -DZ
04:45 68.4 °F 67.2 °F 29.95 in South 1.0 mph 3.0 mph 96% 0.00 in -DZ
05:00 68.3 °F 67.1 °F 29.95 in SSE 2.0 mph 4.0 mph 96% 0.00 in -DZ
05:15 68.1 °F 66.9 °F 29.94 in South 1.0 mph 2.0 mph 96% 0.00 in -DZ
05:30 68.0 °F 66.8 °F 29.94 in Calm   2.0 mph 96% 0.00 in -DZ
05:45 67.9 °F 66.7 °F 29.94 in Calm   1.0 mph 96% 0.01 in -DZ
06:00 67.6 °F 66.4 °F 29.94 in Calm   1.0 mph 96% 0.00 in -DZ
06:15 67.4 °F 66.2 °F 29.94 in Calm     96% 0.00 in -DZ
06:30 67.3 °F 66.1 °F 29.93 in Calm     96% 0.00 in -DZ
06:45 67.3 °F 66.1 °F 29.93 in Calm     96% 0.00 in -DZ
07:00 67.5 °F 66.7 °F 29.94 in Calm   5.0 mph 97% 0.00 in -DZ
07:15 67.4 °F 66.2 °F 29.94 in Calm     96% 0.00 in BKN
07:30 67.7 °F 66.8 °F 29.94 in Calm     97% 0.00 in BKN
07:45 68.1 °F 67.2 °F 29.94 in Calm     97% 0.00 in BKN
08:00 68.4 °F 67.5 °F 29.94 in Calm     97% 0.00 in BKN
08:15 68.4 °F 67.3 °F 29.94 in Calm     96% 0.00 in BKN
08:30 68.9 °F 67.4 °F 29.94 in Calm   2.0 mph 95% 0.00 in BKN
08:45 69.3 °F 67.8 °F 29.94 in Calm     95% 0.00 in BKN
09:00 70.1 °F 68.3 °F 29.94 in Calm     94% 0.00 in BKN
09:15 70.3 °F 67.6 °F 29.94 in Calm     91% 0.00 in BKN
09:30 70.8 °F 67.7 °F 29.94 in Calm     90% 0.00 in BKN
09:45 70.8 °F 67.7 °F 29.94 in Calm   1.0 mph 90% 0.00 in BKN
10:00 71.1 °F 68.0 °F 29.94 in Calm     90% 0.00 in BKN
10:15 71.6 °F 68.8 °F 29.94 in Calm     91% 0.00 in BKN
10:30 71.6 °F 68.2 °F 29.94 in Calm   1.0 mph 89% 0.00 in BKN
10:45 72.2 °F 68.8 °F 29.94 in Calm   1.0 mph 89% 0.00 in BKN
11:00 72.7 °F 68.6 °F 29.93 in Calm   2.0 mph 87% 0.00 in BKN
11:15 73.2 °F 68.8 °F 29.93 in Calm   2.0 mph 86% 0.00 in BKN
11:30 73.0 °F 68.6 °F 29.93 in South 1.0 mph 3.0 mph 86% 0.00 in BKN
11:45 73.2 °F 68.8 °F 29.93 in Calm   3.0 mph 86% 0.00 in BKN
12:00 73.1 °F 68.7 °F 29.93 in South 1.0 mph 4.0 mph 86% 0.00 in BKN
12:15 73.0 °F 68.9 °F 29.92 in SW 1.0 mph 4.0 mph 87% 0.00 in BKN
12:30 73.1 °F 68.7 °F 29.92 in SW 1.0 mph 6.0 mph 86% 0.00 in BKN
12:45 73.0 °F 68.9 °F 29.92 in Calm   4.0 mph 87% 0.00 in BKN
13:00 73.1 °F 69.0 °F 29.92 in Calm   3.0 mph 87% 0.00 in BKN
13:15 72.8 °F 69.0 °F 29.92 in Calm   5.0 mph 88% 0.00 in BKN
13:30 72.7 °F 69.3 °F 29.92 in Calm   1.0 mph 89% 0.00 in BKN
13:45 72.6 °F 69.2 °F 29.92 in SSW 2.0 mph 3.0 mph 89% 0.00 in BKN
14:00 72.8 °F 69.7 °F 29.92 in Calm   4.0 mph 90% 0.01 in BKN
14:15 72.8 °F 69.7 °F 29.91 in SW 1.0 mph 3.0 mph 90% 0.00 in -RA
14:30 72.9 °F 69.8 °F 29.91 in Calm   6.0 mph 90% 0.00 in -RA
14:45 72.7 °F 69.6 °F 29.91 in SW 1.0 mph 4.0 mph 90% 0.00 in -RA
15:00 72.4 °F 69.3 °F 29.91 in Calm   2.0 mph 90% 0.00 in -RA
15:15 72.5 °F 69.7 °F 29.90 in Calm   3.0 mph 91% 0.00 in -RA
15:30 72.2 °F 69.4 °F 29.91 in Calm   3.0 mph 91% 0.00 in -RA
15:45 71.9 °F 69.5 °F 29.91 in Calm   3.0 mph 92% 0.00 in -RA
16:00 71.9 °F 69.4 °F 29.90 in Calm   3.0 mph 92% 0.00 in -RA
16:15 72.0 °F 69.5 °F 29.89 in Calm   1.0 mph 92% 0.00 in -RA
16:30 72.0 °F 69.5 °F 29.90 in SW 1.0 mph 2.0 mph 92% 0.00 in -RA
16:45 72.1 °F 69.6 °F 29.90 in South 1.0 mph 3.0 mph 92% 0.00 in -RA
17:00 72.6 °F 69.8 °F 29.89 in SW 2.0 mph 4.0 mph 91% 0.00 in -RA
17:15 72.9 °F 69.8 °F 29.89 in SSW 1.0 mph 4.0 mph 90% 0.00 in BKN
17:30 72.9 °F 69.8 °F 29.90 in Calm   2.0 mph 90% 0.00 in BKN
17:45 72.9 °F 69.8 °F 29.90 in Calm   1.0 mph 90% 0.00 in BKN
18:00 72.8 °F 69.7 °F 29.90 in Calm   3.0 mph 90% 0.00 in BKN
18:15 72.7 °F 69.9 °F 29.90 in Calm   3.0 mph 91% 0.00 in OVC
18:30 72.8 °F 69.7 °F 29.90 in SSW 1.0 mph 3.0 mph 90% 0.00 in OVC
18:45 72.8 °F 69.7 °F 29.90 in Calm   3.0 mph 90% 0.00 in OVC
19:00 72.9 °F 70.1 °F 29.90 in Calm   1.0 mph 91% 0.00 in OVC
19:15 73.5 °F 70.4 °F 29.89 in WSW 1.0 mph 3.0 mph 90% 0.00 in BKN
19:30 73.4 °F 70.3 °F 29.89 in Calm   2.0 mph 90% 0.00 in BKN
19:45 72.7 °F 69.9 °F 29.90 in Calm   3.0 mph 91% 0.00 in BKN
20:00 71.9 °F 69.5 °F 29.90 in Calm   2.0 mph 92% 0.00 in BKN
20:15 71.4 °F 69.3 °F 29.91 in Calm   2.0 mph 93% 0.00 in BKN
20:30 71.1 °F 69.3 °F 29.92 in Calm   1.0 mph 94% 0.00 in BKN
20:45 71.1 °F 69.6 °F 29.92 in Calm   1.0 mph 95% 0.00 in BKN
21:00 71.0 °F 69.5 °F 29.92 in Calm     95% 0.00 in BKN
21:15 70.9 °F 69.4 °F 29.92 in Calm     95% 0.00 in BKN
21:30 70.9 °F 69.4 °F 29.92 in Calm     95% 0.00 in BKN
21:45 70.9 °F 69.4 °F 29.92 in Calm   1.0 mph 95% 0.00 in BKN
22:00 70.8 °F 69.3 °F 29.92 in Calm   1.0 mph 95% 0.00 in BKN
22:15 70.4 °F 68.9 °F 29.92 in Calm     95% 0.00 in BKN
22:30 70.0 °F 68.8 °F 29.92 in Calm     96% 0.00 in BKN
22:45 69.9 °F 68.7 °F 29.92 in Calm     96% 0.00 in BKN
23:00 69.7 °F 68.5 °F 29.91 in Calm     96% 0.00 in BKN
23:30 69.2 °F 68.0 °F 29.91 in Calm     96% 0.00 in OVC
23:45 68.8 °F 67.6 °F 29.91 in Calm   1.0 mph 96% 0.00 in OVC
TarryTown NY Weather
Compliments of Weather Underground - 1.5 mb